North Dighton, MA (02764)

8:14 AM EST on February 27, 2015 (GMT -0500)
North Dighton | Change Station
CLOSE
Current Station
Personal Weather Station
Location: North Dighton, MA
Elevation: 65 ft
Nearby Weather Stations

Elev 65 ft 41.87 °N, 71.14 °W | Updated 15 seconds ago

Clear
Clear
14.9 °F
Feels Like 15 °F
N
0.0
Wind Variable Wind from North
Gusts 2.0 mph

Today
High -- | Low -- °F
--% Chance of Precip.
Yesterday
High -- | Low -- °F
Precip. -- in
6:23 AM 5:32 PM
Waxing Gibbous, 68% visible
Pressure 30.32 in
Visibility 9.0 miles
Clouds Clear
Windchill 15 °F
Dew Point 6 °F
Humidity 68%
Rainfall 0.00 in
Snow Depth Not available.
UV 1 out of 12
Pollen .40 out of 12
Air Quality Not available.
Flu Activity Not available.
METAR KTAN 271252Z AUTO 00000KT 9SM CLR M15/M15 A3032 RMK AO2 SLP267 T11501150

More Conditions Fewer Conditions

Pressure 30.32 in
Visibility 9.0 miles
Clouds Clear
Windchill 15 °F
Dew Point 6 °F
Humidity 68%
Rainfall 0.00 in
Snow Depth Not available.
UV 1 out of 12
Pollen .40 out of 12
Air Quality Not available.
Flu Activity Not available.
METAR KTAN 271252Z AUTO 00000KT 9SM CLR M15/M15 A3032 RMK AO2 SLP267 T11501150

More Conditions Fewer Conditions

10-Day Weather Forecast

Almanac

Astronomy

Feb. 27, 2015 Rise Set
Actual Time
Civil Twilight
Nautical Twilight
Astronomical Twilight
Moon
Length of Visible Light
Length of Day
Tomorrow will be .
, % of the Moon is Illuminated

Today's Extremes

State Highs State Lows

Community

WunderPhotos

Upload Photos

1,800,668 photos uploaded!

WunderBlogs® & News

Nearby

Air Quality

  Air Quality AQ Index Pollutant
Not available.

Snow Depth

Station Depth Elevation

Earthquake Activity

City Distance Mag. Time & Date
Minimum magnitude displayed is 2.5.

Coastal Water Temperatures

Place Temperature

Nearby Weather Stations